KSAT/SAT METAR and TAF weather

Enter ICAO airport designator
Station Type Date Time Source
KSAT METAR 2020/08/05 16:51 UTC NOAA

KSAT 051651Z 19008KT 10SM FEW035 32/20 A3004 RMK AO2 SLP150 T03220200


Station Type Date Time Source
KSAT Decoded METAR 2020/08/05 16:51 UTC NOAA

SAN ANTONIO INTERNATIONAL AIRPORT , TX, United States (KSAT) 29-32N 098-28W 243M
Aug 05, 2020 - 12:51 PM EDT / 2020.08.05 1651 UTC
Wind: from the S (190 degrees) at 9 MPH (8 KT):0
Visibility: 10 mile(s):0
Sky conditions: mostly clear
Temperature: 90.0 F (32.2 C)
Dew Point: 68.0 F (20.0 C)
Relative Humidity: 48%
Pressure (altimeter): 30.04 in. Hg (1017 hPa)
ob: KSAT 051651Z 19008KT 10SM FEW035 32/20 A3004 RMK AO2 SLP150 T03220200
cycle: 17

Station Type Date Time Source
KSAT TAF 2020/08/05 15:48 UTC NOAA

TAF
AMD KSAT 051446Z 0515/0618 20006KT P6SM SCT019
FM051700 16012KT P6SM FEW060
FM060900 19007KT P6SM BKN011
FM061600 17010KT P6SM FEW030

Example: see airport list